Time;durP1;ratioP1;P1;durP2;ratioP2;P2;SDS_P1;SDS_P2;PMS_P1;PMS_P2;Temp;Humidity;BMP_temperature;BMP_pressure;BME280_temperature;BME280_humidity;BME280_pressure;Samples;Min_cycle;Max_cycle;Signal;HPM_P1;HPM_P2
2021/09/22 00:00:22;;;;;;;;;40.00;32.50;;;;;14.09;70.11;102798.00;4890414;29;45221;-91
2021/09/22 00:02:48;;;;;;;;;40.00;34.00;;;;;14.07;70.14;102797.16;4885669;29;46216;-91
2021/09/22 00:05:14;;;;;;;;;38.25;32.50;;;;;14.11;70.25;102797.97;4885671;29;45352;-89
2021/09/22 00:07:40;;;;;;;;;44.50;33.25;;;;;14.07;70.21;102789.22;4885779;29;45511;-87
2021/09/22 00:10:09;;;;;;;;;42.75;35.75;;;;;14.01;70.34;102782.25;4885398;29;45597;-90
2021/09/22 00:12:34;;;;;;;;;38.75;34.00;;;;;13.99;70.25;102784.06;4868515;29;46258;-88
2021/09/22 00:15:01;;;;;;;;;41.00;33.75;;;;;14.01;70.65;102786.66;4885618;29;45309;-89
2021/09/22 00:17:27;;;;;;;;;36.75;32.00;;;;;13.96;70.62;102789.38;4885642;29;45533;-89
2021/09/22 00:20:22;;;;;;;;;;;;;;;;;;;;;
2021/09/22 00:22:58;;;;;;;;;33.25;28.00;;;;;13.90;70.99;102784.19;4869976;29;74104;-89
2021/09/22 00:32:44;;;;;;;;;;;;;;;;;;;;;
2021/09/22 00:39:29;;;;;;;;;38.50;33.75;;;;;13.83;70.83;102784.25;4799090;29;45297;-95
2021/09/22 00:41:55;;;;;;;;;43.00;33.75;;;;;13.76;70.93;102781.72;4790464;29;45506;-90
2021/09/22 00:44:20;;;;;;;;;39.00;32.00;;;;;13.74;71.00;102773.81;4884592;29;45252;-94
2021/09/22 00:46:46;;;;;;;;;37.50;31.75;;;;;13.79;71.06;102789.63;4884563;29;46850;-92
2021/09/22 00:49:11;;;;;;;;;43.25;34.25;;;;;13.80;70.65;102786.09;4885593;29;45283;-92
2021/09/22 00:51:36;;;;;;;;;44.00;32.50;;;;;13.69;70.56;102767.72;4868275;29;45712;-89
2021/09/22 00:54:02;;;;;;;;;33.75;29.25;;;;;13.72;70.95;102771.22;4885235;29;45540;-89
2021/09/22 00:56:28;;;;;;;;;32.00;30.50;;;;;13.67;71.05;102770.41;4884878;29;45436;-89
2021/09/22 00:58:54;;;;;;;;;36.75;31.50;;;;;13.68;71.41;102772.13;4885955;29;45846;-88
2021/09/22 01:01:20;;;;;;;;;36.75;31.50;;;;;13.65;71.15;102769.56;4885260;29;45517;-87
2021/09/22 01:03:46;;;;;;;;;37.50;31.50;;;;;13.70;71.20;102780.06;4885337;29;45510;-92
2021/09/22 01:12:45;;;;;;;;;35.00;30.75;;;;;13.59;71.43;102753.75;4780531;29;45474;-93
2021/09/22 01:15:49;;;;;;;;;;;;;;;;;;;;;
2021/09/22 01:18:19;;;;;;;;;38.25;32.00;;;;;13.60;71.24;102766.09;4883851;29;76651;-88
2021/09/22 01:20:48;;;;;;;;;41.75;33.00;;;;;13.62;71.34;102766.94;4884902;29;45431;-84
2021/09/22 01:23:15;;;;;;;;;35.50;31.00;;;;;13.54;71.16;102750.28;4884461;29;45573;-87
2021/09/22 01:25:45;;;;;;;;;42.50;31.25;;;;;13.52;71.23;102747.66;4883958;29;45644;-85
2021/09/22 01:28:12;;;;;;;;;38.50;31.75;;;;;13.55;71.04;102758.19;4884665;29;45468;-91
2021/09/22 01:31:00;;;;;;;;;39.75;33.50;;;;;13.45;71.17;102746.88;4884994;29;45261;-93
2021/09/22 01:37:24;;;;;;;;;39.50;32.75;;;;;13.51;71.49;102751.19;4864487;29;45347;-94
2021/09/22 01:39:49;;;;;;;;;35.75;30.00;;;;;13.46;71.33;102742.44;4868694;29;46208;-82
2021/09/22 01:42:14;;;;;;;;;34.00;30.25;;;;;13.46;71.30;102745.97;4883632;29;45429;-84
2021/09/22 01:44:40;;;;;;;;;41.50;32.75;;;;;13.45;71.70;102746.88;4884247;29;45386;-83
2021/09/22 01:57:54;;;;;;;;;34.25;31.00;;;;;13.31;71.89;102735.63;4753026;29;45563;-85
2021/09/22 02:00:20;;;;;;;;;38.25;32.00;;;;;13.35;71.41;102745.22;4836824;29;45497;-88
2021/09/22 02:02:57;;;;;;;;;40.50;33.75;;;;;13.33;71.36;102753.19;4884197;29;46343;-91
2021/09/22 02:05:28;;;;;;;;;38.00;32.00;;;;;13.28;71.54;102745.28;4867054;29;45366;-92
2021/09/22 02:07:53;;;;;;;;;39.25;30.50;;;;;13.25;71.51;102734.78;4865949;29;45217;-90
2021/09/22 02:10:19;;;;;;;;;36.75;31.50;;;;;13.29;71.75;102735.63;4883561;29;45426;-89
2021/09/22 02:12:44;;;;;;;;;40.50;34.25;;;;;13.31;71.51;102743.53;4882121;29;45632;-90
2021/09/22 02:15:10;;;;;;;;;42.25;33.75;;;;;13.27;71.65;102730.34;4876435;29;45495;-88
2021/09/22 02:17:35;;;;;;;;;38.50;33.00;;;;;13.27;71.67;102726.84;4892013;29;45217;-89
2021/09/22 02:20:02;;;;;;;;;38.00;34.00;;;;;13.25;71.69;102723.34;4866855;29;45479;-88
2021/09/22 02:22:27;;;;;;;;;42.00;35.50;;;;;13.25;71.90;102721.59;4883667;29;45432;-89
2021/09/22 02:24:53;;;;;;;;;38.75;32.75;;;;;13.22;71.70;102711.06;4883771;29;45398;-88
2021/09/22 02:27:18;;;;;;;;;39.50;31.75;;;;;13.24;71.94;102711.91;4883904;29;45497;-89
2021/09/22 02:29:44;;;;;;;;;39.75;33.50;;;;;13.20;71.86;102693.47;4883745;29;45474;-89
2021/09/22 02:32:50;;;;;;;;;;;;;;;;;;;;;
2021/09/22 02:39:55;;;;;;;;;;;;;;;;;;;;;
2021/09/22 03:11:06;;;;;;;;;44.50;35.00;;;;;13.05;72.09;102663.75;4646631;30;45428;-90
2021/09/22 03:13:33;;;;;;;;;40.00;33.50;;;;;13.13;72.13;102672.44;4670893;30;45596;-91
2021/09/22 03:15:59;;;;;;;;;48.75;36.00;;;;;13.06;72.01;102660.22;4706940;29;46015;-91
2021/09/22 03:18:24;;;;;;;;;36.00;31.75;;;;;13.14;72.38;102668.03;4844211;29;45214;-90
2021/09/22 03:20:50;;;;;;;;;36.25;32.50;;;;;13.15;72.44;102664.50;4828279;29;47241;-91
2021/09/22 03:23:16;;;;;;;;;42.25;36.00;;;;;13.19;72.00;102670.59;4844669;29;45338;-90
2021/09/22 03:25:41;;;;;;;;;48.50;37.50;;;;;13.15;71.81;102665.38;4848993;29;45368;-86
2021/09/22 03:28:07;;;;;;;;;47.25;35.75;;;;;13.16;72.15;102666.25;4860034;29;45358;-87
2021/09/22 03:30:32;;;;;;;;;41.50;33.75;;;;;13.14;72.02;102666.25;4865676;29;45522;-90
2021/09/22 03:32:58;;;;;;;;;42.50;35.50;;;;;13.13;71.94;102655.72;4850150;29;48333;-83
2021/09/22 03:35:24;;;;;;;;;37.25;32.50;;;;;13.17;72.16;102673.28;4865597;29;45524;-83
2021/09/22 03:37:49;;;;;;;;;40.75;34.75;;;;;13.12;72.30;102668.06;4845903;29;45398;-87
2021/09/22 03:40:15;;;;;;;;;42.50;35.50;;;;;13.09;71.95;102664.59;4864693;29;45376;-85
2021/09/22 03:42:41;;;;;;;;;41.00;34.25;;;;;13.11;71.95;102671.56;4886171;29;45333;-85
2021/09/22 03:45:07;;;;;;;;;47.50;35.25;;;;;13.07;72.03;102664.59;4868822;29;45162;-86
2021/09/22 03:47:32;;;;;;;;;38.00;32.25;;;;;13.04;72.14;102662.88;4886196;29;45206;-84
2021/09/22 03:49:58;;;;;;;;;45.25;35.25;;;;;12.99;71.92;102662.03;4886153;29;45247;-87
2021/09/22 03:52:24;;;;;;;;;43.25;34.50;;;;;12.99;71.88;102674.41;4885441;29;46080;-87
2021/09/22 03:54:50;;;;;;;;;44.50;35.00;;;;;13.01;71.78;102681.38;4869028;29;45251;-88
2021/09/22 03:57:15;;;;;;;;;40.25;34.25;;;;;12.97;71.90;102671.75;4885744;29;45273;-88
2021/09/22 03:59:41;;;;;;;;;40.00;32.25;;;;;12.93;71.98;102672.69;4899027;29;45398;-87
2021/09/22 04:02:07;;;;;;;;;41.00;33.50;;;;;12.94;72.00;102671.78;4897253;28;45505;-88
2021/09/22 04:04:32;;;;;;;;;43.00;33.00;;;;;12.90;72.36;102672.72;4885974;29;45355;-86
2021/09/22 04:06:58;;;;;;;;;43.50;33.00;;;;;12.91;72.39;102677.13;4886185;29;45387;-87
2021/09/22 04:09:24;;;;;;;;;43.25;32.25;;;;;12.89;72.18;102684.19;4885782;29;45446;-87
2021/09/22 04:11:49;;;;;;;;;44.00;35.75;;;;;12.88;71.98;102683.31;4885595;29;45431;-86
2021/09/22 04:14:15;;;;;;;;;44.75;35.00;;;;;12.83;72.26;102687.75;4885457;29;45713;-86
2021/09/22 04:17:00;;;;;;;;;43.00;34.00;;;;;12.90;72.35;102697.34;4885848;29;45713;-91
2021/09/22 04:19:26;;;;;;;;;41.75;33.00;;;;;12.80;72.26;102690.41;4885516;29;45554;-86
2021/09/22 04:21:51;;;;;;;;;42.75;36.00;;;;;12.78;72.22;102687.81;4868126;29;46779;-82
2021/09/22 04:24:17;;;;;;;;;36.00;31.50;;;;;12.76;72.22;102683.44;4880982;29;45328;-86
2021/09/22 04:26:43;;;;;;;;;44.00;35.75;;;;;12.79;72.08;102689.53;4885629;29;45220;-84
2021/09/22 04:29:08;;;;;;;;;43.00;34.50;;;;;12.71;72.55;102678.22;4885341;29;45513;-86
2021/09/22 04:31:34;;;;;;;;;41.50;34.00;;;;;12.79;72.18;102697.47;4885531;29;45291;-83
2021/09/22 04:33:59;;;;;;;;;42.75;34.50;;;;;12.76;72.32;102694.88;4884937;29;45222;-84
2021/09/22 04:36:26;;;;;;;;;45.75;33.50;;;;;12.74;72.35;102690.50;4885666;29;45459;-84
2021/09/22 04:38:52;;;;;;;;;39.50;33.25;;;;;12.70;72.24;102684.38;4885241;29;45513;-86
2021/09/22 04:41:17;;;;;;;;;43.25;34.75;;;;;12.70;72.18;102694.91;4885324;29;45408;-86
2021/09/22 04:43:43;;;;;;;;;50.75;37.00;;;;;12.71;72.22;102699.31;4885215;29;45462;-88
2021/09/22 04:46:11;;;;;;;;;45.75;36.50;;;;;12.69;72.60;102691.41;4868694;29;45466;-84
2021/09/22 04:48:41;;;;;;;;;39.75;32.50;;;;;12.71;72.19;102694.03;4866436;29;45200;-82
2021/09/22 04:51:06;;;;;;;;;40.50;33.50;;;;;12.68;72.24;102688.78;4885214;29;45562;-82
2021/09/22 04:53:32;;;;;;;;;40.00;34.25;;;;;12.72;72.05;102698.41;4885167;29;45385;-82
2021/09/22 04:55:57;;;;;;;;;48.50;35.00;;;;;12.70;72.02;102697.56;4884993;29;45491;-82
2021/09/22 04:58:23;;;;;;;;;40.50;34.50;;;;;12.62;72.21;102687.09;4887902;29;46942;-84
2021/09/22 05:00:49;;;;;;;;;41.00;35.00;;;;;12.60;72.49;102692.38;4887140;29;45475;-85
2021/09/22 05:03:15;;;;;;;;;40.00;33.25;;;;;12.66;72.58;102694.09;4885139;29;45451;-87
2021/09/22 05:05:41;;;;;;;;;42.50;33.50;;;;;12.58;72.33;102683.63;4885376;29;45295;-88
2021/09/22 05:08:07;;;;;;;;;39.50;33.00;;;;;12.59;72.14;102687.13;4884627;29;45504;-88
2021/09/22 05:10:32;;;;;;;;;46.25;36.50;;;;;12.54;71.97;102686.31;4884279;29;46409;-87
2021/09/22 05:12:58;;;;;;;;;41.25;34.00;;;;;12.49;72.15;102670.53;4884814;29;45201;-87
2021/09/22 05:15:23;;;;;;;;;47.50;38.50;;;;;12.55;72.49;102683.63;4884542;29;45547;-82
2021/09/22 05:17:48;;;;;;;;;45.25;34.25;;;;;12.54;72.13;102681.91;4884815;29;45205;-83
2021/09/22 05:20:14;;;;;;;;;44.25;33.00;;;;;12.52;72.43;102682.81;4884592;29;45377;-84
2021/09/22 05:22:39;;;;;;;;;41.25;34.25;;;;;12.49;72.23;102681.94;4884594;29;45434;-84
2021/09/22 05:25:05;;;;;;;;;39.75;33.00;;;;;12.48;72.53;102690.75;4885080;29;45487;-84
2021/09/22 05:27:31;;;;;;;;;47.25;37.00;;;;;12.54;72.25;102699.50;4884455;29;45544;-83
2021/09/22 05:29:56;;;;;;;;;40.00;34.25;;;;;12.50;72.42;102690.72;4884747;29;45422;-85
2021/09/22 05:32:22;;;;;;;;;42.50;34.25;;;;;12.51;72.44;102699.50;4884607;29;45340;-85
2021/09/22 05:34:47;;;;;;;;;46.50;36.75;;;;;12.53;72.58;102695.09;4884065;29;45692;-84
2021/09/22 05:37:13;;;;;;;;;42.25;36.00;;;;;12.52;72.42;102704.75;4884505;29;45513;-84
2021/09/22 05:39:39;;;;;;;;;44.75;35.00;;;;;12.47;72.44;102696.91;4884476;29;45464;-84
2021/09/22 05:42:07;;;;;;;;;45.50;35.00;;;;;12.47;72.63;102693.41;4883859;29;45755;-83
2021/09/22 05:44:33;;;;;;;;;47.00;36.25;;;;;12.45;72.69;102695.16;4884390;29;45261;-84
2021/09/22 05:46:58;;;;;;;;;45.25;35.50;;;;;12.46;72.83;102707.47;4883315;29;45473;-84
2021/09/22 05:49:23;;;;;;;;;45.75;36.75;;;;;12.47;72.43;102703.97;4884321;29;46493;-84
2021/09/22 05:51:49;;;;;;;;;45.75;36.50;;;;;12.44;72.32;102703.97;4867349;29;45434;-84
2021/09/22 05:54:15;;;;;;;;;45.50;35.00;;;;;12.42;72.49;102701.34;4884839;29;45219;-84
2021/09/22 05:56:42;;;;;;;;;44.25;34.25;;;;;12.41;72.84;102701.38;4876950;29;45472;-88
2021/09/22 05:59:10;;;;;;;;;43.25;36.00;;;;;12.39;72.86;102704.03;4887435;29;46605;-86
2021/09/22 06:01:36;;;;;;;;;44.75;34.50;;;;;12.44;72.97;102711.91;4884400;29;45487;-86
2021/09/22 06:04:02;;;;;;;;;46.75;38.75;;;;;12.43;72.67;102712.75;4883775;29;45501;-87
2021/09/22 06:06:28;;;;;;;;;49.50;39.00;;;;;12.46;72.60;102713.63;4882712;29;45935;-85
2021/09/22 06:08:53;;;;;;;;;46.00;38.00;;;;;12.49;73.01;102718.84;4883839;29;45558;-82
2021/09/22 06:11:19;;;;;;;;;48.75;36.75;;;;;12.51;72.99;102720.63;4883503;29;45313;-83
2021/09/22 06:13:45;;;;;;;;;48.25;38.00;;;;;12.48;73.13;102714.47;4866759;29;45464;-84
2021/09/22 06:16:11;;;;;;;;;46.25;38.50;;;;;12.50;73.19;102717.09;4884085;29;45305;-85
2021/09/22 06:18:37;;;;;;;;;47.50;38.75;;;;;12.54;73.45;102721.47;4884199;29;45255;-85
2021/09/22 06:21:04;;;;;;;;;41.50;35.25;;;;;12.56;73.43;102716.19;4884120;29;45863;-81
2021/09/22 06:23:30;;;;;;;;;48.50;39.00;;;;;12.64;73.70;102727.53;4884591;29;45326;-80
2021/09/22 06:25:55;;;;;;;;;44.50;36.25;;;;;12.65;73.63;102724.00;4882605;29;47698;-80
2021/09/22 06:28:21;;;;;;;;;48.25;38.25;;;;;12.63;73.63;102703.78;4880320;29;45506;-80
2021/09/22 06:30:46;;;;;;;;;46.25;36.50;;;;;12.68;73.84;102710.78;4889078;29;45468;-82
2021/09/22 06:33:11;;;;;;;;;50.00;36.25;;;;;12.74;73.40;102723.00;4869354;29;45453;-80
2021/09/22 06:35:37;;;;;;;;;46.50;37.75;;;;;12.70;72.91;102716.03;4886411;29;45246;-80
2021/09/22 06:38:02;;;;;;;;;45.25;36.00;;;;;12.74;73.27;102717.75;4889900;29;46397;-80
2021/09/22 06:40:28;;;;;;;;;49.25;37.50;;;;;12.78;72.50;102724.75;4881343;29;45502;-80
2021/09/22 06:42:53;;;;;;;;;48.25;34.75;;;;;12.84;71.98;102729.06;4880109;29;45261;-80
2021/09/22 06:45:22;;;;;;;;;48.00;38.50;;;;;12.86;71.63;102723.78;4883820;29;45238;-80
2021/09/22 06:47:48;;;;;;;;;45.75;35.75;;;;;12.92;71.47;102718.44;4882680;29;46453;-80
2021/09/22 06:50:14;;;;;;;;;43.75;36.75;;;;;12.98;71.05;102726.31;4877859;29;45605;-80
2021/09/22 06:52:40;;;;;;;;;44.75;36.25;;;;;12.98;70.68;102714.88;4859936;29;45523;-80
2021/09/22 06:55:06;;;;;;;;;46.00;34.50;;;;;13.09;71.72;102720.03;4882740;29;45416;-80
2021/09/22 06:57:33;;;;;;;;;45.00;35.25;;;;;13.12;71.38;102725.25;4883805;29;45330;-80
2021/09/22 06:59:59;;;;;;;;;44.50;37.00;;;;;13.18;70.64;102721.69;4891049;29;45427;-79
2021/09/22 07:02:24;;;;;;;;;41.75;35.00;;;;;13.26;71.55;102725.97;4886689;29;45232;-80
2021/09/22 07:04:49;;;;;;;;;44.50;35.00;;;;;13.32;70.93;102730.31;4886682;29;45546;-80
2021/09/22 07:07:15;;;;;;;;;38.25;33.50;;;;;13.41;71.58;102739.88;4886116;29;45353;-82
2021/09/22 07:09:43;;;;;;;;;42.50;35.50;;;;;13.42;71.50;102722.25;4878368;29;45153;-83
2021/09/22 07:12:08;;;;;;;;;42.75;35.25;;;;;13.43;71.65;102722.25;4874591;29;45354;-83
2021/09/22 07:14:34;;;;;;;;;41.50;35.75;;;;;13.53;70.99;102730.06;4869195;29;45822;-81
2021/09/22 07:17:00;;;;;;;;;46.50;35.75;;;;;13.54;69.87;102727.38;4869608;29;47186;-82
2021/09/22 07:19:25;;;;;;;;;43.50;33.75;;;;;13.58;69.98;102731.75;4869801;29;45670;-81
2021/09/22 07:21:51;;;;;;;;;39.50;33.75;;;;;13.57;69.45;102729.13;4869867;29;45485;-81
2021/09/22 07:24:16;;;;;;;;;45.75;37.00;;;;;13.64;69.34;102746.66;4866839;29;45514;-81
2021/09/22 07:26:42;;;;;;;;;45.50;38.25;;;;;13.65;68.97;102745.78;4868905;29;49271;-81
2021/09/22 07:29:07;;;;;;;;;44.00;35.50;;;;;13.66;69.52;102752.78;4879884;29;45293;-81
2021/09/22 07:31:34;;;;;;;;;44.00;36.75;;;;;13.70;70.02;102746.56;4885335;29;45253;-81
2021/09/22 07:34:00;;;;;;;;;51.25;38.75;;;;;13.72;69.26;102750.06;4895957;29;45336;-82
2021/09/22 07:36:26;;;;;;;;;42.25;35.75;;;;;13.75;69.00;102756.22;4886085;29;46530;-82
2021/09/22 07:38:51;;;;;;;;;50.00;38.25;;;;;13.77;69.83;102751.75;4886773;29;45277;-81
2021/09/22 07:41:17;;;;;;;;;56.50;41.75;;;;;13.79;68.79;102745.56;4886193;29;45538;-81
2021/09/22 07:43:42;;;;;;;;;53.75;42.75;;;;;13.86;69.09;102751.63;4874672;29;45377;-81
2021/09/22 07:46:08;;;;;;;;;64.50;47.75;;;;;13.83;68.64;102752.53;4882947;29;47829;-82
2021/09/22 07:48:35;;;;;;;;;62.25;47.25;;;;;13.90;68.63;102765.69;4875803;29;45351;-82
2021/09/22 07:51:01;;;;;;;;;62.50;48.00;;;;;13.90;68.93;102749.81;4882707;29;45327;-82
2021/09/22 07:53:27;;;;;;;;;78.50;71.25;;;;;13.98;68.43;102760.25;4885980;29;45415;-89
2021/09/22 07:55:52;;;;;;;;;84.75;78.25;;;;;14.03;69.30;102753.13;4892910;29;45196;-82
2021/09/22 07:58:21;;;;;;;;;82.75;67.25;;;;;14.10;68.20;102757.44;4873133;29;45234;-82
2021/09/22 08:00:46;;;;;;;;;85.25;66.75;;;;;14.16;68.26;102760.00;4896987;29;45291;-83
2021/09/22 08:03:11;;;;;;;;;78.00;58.50;;;;;14.22;68.82;102758.16;4869099;29;47206;-82
2021/09/22 08:05:40;;;;;;;;;78.50;59.25;;;;;14.27;67.74;102756.31;4885802;29;45699;-83
2021/09/22 08:08:09;;;;;;;;;77.50;59.50;;;;;14.38;67.59;102761.41;4898686;29;45789;-82
2021/09/22 08:10:36;;;;;;;;;81.25;67.00;;;;;14.39;67.92;102760.53;4885196;29;45233;-82
2021/09/22 08:13:02;;;;;;;;;83.25;63.00;;;;;14.45;67.94;102760.41;4903904;29;45383;-81
2021/09/22 08:15:28;;;;;;;;;74.00;57.50;;;;;14.48;69.02;102759.47;4885059;29;46562;-83
2021/09/22 08:17:54;;;;;;;;;82.00;65.00;;;;;14.51;68.18;102755.03;4872121;29;45501;-83
2021/09/22 08:20:19;;;;;;;;;76.75;59.50;;;;;14.58;67.45;102758.44;4889930;29;45252;-83
2021/09/22 08:22:45;;;;;;;;;78.00;58.75;;;;;14.65;67.24;102760.94;4884857;29;45578;-84
2021/09/22 08:25:12;;;;;;;;;74.00;57.00;;;;;14.63;67.25;102758.34;4872721;29;46525;-84
2021/09/22 08:27:37;;;;;;;;;69.75;53.25;;;;;14.68;67.96;102755.63;4883450;29;45285;-82
2021/09/22 08:30:05;;;;;;;;;71.50;54.25;;;;;14.77;68.08;102766.03;4890049;29;45184;-83
2021/09/22 08:32:31;;;;;;;;;81.75;62.75;;;;;14.78;67.59;102759.84;4897135;29;45218;-83
2021/09/22 08:34:56;;;;;;;;;80.50;60.50;;;;;14.88;67.04;102767.63;4865495;29;46467;-83
2021/09/22 08:37:22;;;;;;;;;83.50;69.25;;;;;14.92;66.79;102761.38;4900313;29;45391;-83
2021/09/22 08:39:47;;;;;;;;;89.00;77.50;;;;;14.95;66.14;102764.84;4880890;29;45390;-82
2021/09/22 08:42:13;;;;;;;;;83.50;67.25;;;;;15.01;65.95;102765.66;4885059;29;45392;-82
2021/09/22 08:44:39;;;;;;;;;81.75;66.25;;;;;14.98;65.54;102755.97;4885450;29;45456;-83
2021/09/22 08:47:04;;;;;;;;;82.25;67.75;;;;;15.06;66.08;102761.97;4887058;29;45396;-83
2021/09/22 08:49:29;;;;;;;;;79.25;60.75;;;;;15.05;66.10;102756.72;4885175;29;45415;-83
2021/09/22 08:51:55;;;;;;;;;81.00;66.50;;;;;15.06;65.36;102748.75;4872666;29;45394;-83
2021/09/22 08:54:20;;;;;;;;;80.50;65.00;;;;;15.13;65.81;102751.28;4885046;29;46182;-83
2021/09/22 08:56:46;;;;;;;;;83.00;65.75;;;;;15.24;65.53;102769.59;4867964;29;45453;-83
2021/09/22 08:59:14;;;;;;;;;84.00;71.75;;;;;15.24;65.10;102765.16;4885777;29;45281;-83
2021/09/22 09:01:40;;;;;;;;;77.75;60.75;;;;;15.22;64.83;102756.38;4890626;29;45375;-83
2021/09/22 09:04:17;;;;;;;;;73.75;57.75;;;;;15.25;64.63;102756.34;4890897;29;45500;-83
2021/09/22 09:06:44;;;;;;;;;76.50;55.00;;;;;15.29;64.81;102758.00;4884831;29;45443;-83
2021/09/22 09:09:10;;;;;;;;;74.00;55.00;;;;;15.33;64.37;102760.59;4885121;29;45469;-87
2021/09/22 09:11:38;;;;;;;;;66.00;51.50;;;;;15.35;64.40;102756.13;4872215;29;45359;-90
2021/09/22 09:14:13;;;;;;;;;66.00;49.00;;;;;15.46;64.34;102764.72;4884897;29;46356;-92
2021/09/22 09:16:41;;;;;;;;;62.00;46.00;;;;;15.44;64.59;102750.63;4885056;29;45671;-91
2021/09/22 09:19:13;;;;;;;;;63.50;47.75;;;;;15.49;64.57;102759.38;4883964;29;46177;-87
2021/09/22 09:22:08;;;;;;;;;60.00;42.50;;;;;15.59;63.65;102753.84;4884555;29;45458;-85
2021/09/22 09:24:39;;;;;;;;;47.25;35.50;;;;;15.53;63.39;102742.47;4881060;29;45491;-89
2021/09/22 09:27:08;;;;;;;;;40.75;35.00;;;;;15.64;63.50;102746.69;4884287;29;45509;-86
2021/09/22 09:29:37;;;;;;;;;38.50;33.25;;;;;15.63;63.59;102747.59;4892880;29;45240;-86
2021/09/22 09:32:22;;;;;;;;;38.25;29.75;;;;;15.66;63.79;102742.22;4886224;29;45304;-82
2021/09/22 09:35:14;;;;;;;;;29.00;26.50;;;;;15.80;62.95;102762.25;4883869;29;46126;-87
2021/09/22 09:37:42;;;;;;;;;26.00;22.75;;;;;15.82;62.74;102761.31;4880576;29;45497;-82
2021/09/22 09:40:37;;;;;;;;;30.25;26.25;;;;;15.88;62.09;102754.13;4882669;29;45472;-83
2021/09/22 09:43:08;;;;;;;;;24.50;21.25;;;;;15.84;62.27;102748.88;4879282;29;45527;-91
2021/09/22 09:45:42;;;;;;;;;22.50;20.75;;;;;15.92;61.79;102751.38;4886103;29;46287;-86
2021/09/22 09:48:22;;;;;;;;;30.25;26.00;;;;;15.91;61.55;102739.00;4867605;29;45300;-89
2021/09/22 09:50:52;;;;;;;;;23.25;22.00;;;;;15.97;61.39;102738.88;4884082;29;45324;-88
2021/09/22 09:53:36;;;;;;;;;27.00;22.00;;;;;16.05;61.30;102735.19;4884390;29;45535;-86
2021/09/22 09:56:17;;;;;;;;;24.75;22.00;;;;;16.06;60.92;102727.19;4884133;29;45374;-86
2021/09/22 09:58:45;;;;;;;;;26.00;23.00;;;;;16.13;61.06;102724.38;4868357;29;45848;-86
2021/09/22 10:01:11;;;;;;;;;24.25;22.75;;;;;16.16;61.09;102725.19;4867267;29;45547;-87
2021/09/22 10:03:39;;;;;;;;;24.50;23.50;;;;;16.26;60.75;102732.91;4880663;29;45552;-89
2021/09/22 10:06:07;;;;;;;;;20.00;18.25;;;;;16.26;60.81;102724.94;4880066;29;45316;-88
2021/09/22 10:08:33;;;;;;;;;17.50;17.50;;;;;16.30;61.20;102727.47;4862499;29;45671;-84
2021/09/22 10:11:03;;;;;;;;;4.75;4.25;;;;;16.35;61.11;102719.38;4880710;29;45260;-87
2021/09/22 10:13:31;;;;;;;;;23.00;18.50;;;;;16.40;60.18;102719.25;4867065;29;46106;-87
2021/09/22 10:16:01;;;;;;;;;25.50;18.00;;;;;16.44;60.06;102712.09;4882916;29;46214;-86
2021/09/22 10:18:30;;;;;;;;;22.00;15.00;;;;;16.51;59.93;102711.91;4885043;29;45648;-87
2021/09/22 10:21:33;;;;;;;;;23.25;19.00;;;;;16.56;58.96;102710.91;4883322;29;45387;-87
2021/09/22 10:24:18;;;;;;;;;20.75;17.25;;;;;16.63;59.59;102709.81;4900179;29;47026;-95
2021/09/22 10:26:48;;;;;;;;;17.50;13.75;;;;;16.64;59.36;102693.84;4865525;29;47373;-85
2021/09/22 10:32:41;;;;;;;;;24.00;20.25;;;;;16.82;58.91;102694.25;4853102;29;45519;-86
2021/09/22 10:35:24;;;;;;;;;20.00;16.50;;;;;16.94;58.67;102694.84;4897108;29;45315;-85
2021/09/22 10:37:52;;;;;;;;;17.00;16.25;;;;;16.89;58.10;102680.81;4899630;29;46258;-85
2021/09/22 10:40:40;;;;;;;;;19.50;18.50;;;;;16.96;58.34;102679.72;4887153;29;45310;-85
2021/09/22 10:43:14;;;;;;;;;17.25;13.50;;;;;17.06;58.55;102678.50;4886149;29;45364;-86
2021/09/22 10:46:23;;;;;;;;;21.50;20.00;;;;;17.05;58.44;102674.13;4887129;29;45514;-86
2021/09/22 10:48:54;;;;;;;;;20.25;16.00;;;;;17.17;58.33;102683.56;4877604;29;46292;-85
2021/09/22 10:51:43;;;;;;;;;16.25;14.75;;;;;17.12;57.64;102658.00;4886765;29;45626;-86
2021/09/22 10:54:22;;;;;;;;;;;;;;;;;;;;;
2021/09/22 10:56:54;;;;;;;;;10.75;9.75;;;;;17.20;58.10;102666.66;4884393;29;73028;-87
2021/09/22 10:59:27;;;;;;;;;15.00;12.00;;;;;17.20;58.13;102651.59;4879487;29;47302;-85
2021/09/22 11:02:00;;;;;;;;;17.75;15.75;;;;;17.32;58.60;102660.97;4886620;29;45378;-86
2021/09/22 11:04:28;;;;;;;;;9.25;9.25;;;;;17.38;58.00;102664.34;4888066;29;47228;-86
2021/09/22 11:06:58;;;;;;;;;11.50;9.75;;;;;17.36;58.13;102645.75;4893645;29;47211;-87
2021/09/22 11:09:24;;;;;;;;;14.50;12.00;;;;;17.46;56.75;102661.44;4886382;29;46550;-86
2021/09/22 11:11:56;;;;;;;;;13.25;9.75;;;;;17.50;56.33;102655.97;4885457;29;45381;-86
2021/09/22 11:14:32;;;;;;;;;10.50;10.00;;;;;17.56;56.05;102654.06;4889716;28;45338;-87
2021/09/22 11:17:01;;;;;;;;;11.25;10.25;;;;;17.50;57.63;102636.50;4885427;29;45277;-87
2021/09/22 11:19:30;;;;;;;;;10.00;10.00;;;;;17.56;56.21;102627.47;4885695;29;46268;-87
2021/09/22 11:21:59;;;;;;;;;9.25;8.00;;;;;17.58;54.86;102625.63;4886383;29;45510;-87
2021/09/22 11:24:28;;;;;;;;;10.50;9.75;;;;;17.67;54.48;102641.28;4886775;29;45318;-86
2021/09/22 11:26:59;;;;;;;;;9.75;9.75;;;;;17.74;54.27;102653.44;4886161;29;45251;-87
2021/09/22 11:30:13;;;;;;;;;;;;;;;;;;;;;
2021/09/22 11:32:44;;;;;;;;;8.75;8.75;;;;;17.74;54.47;102629.50;4885646;29;71790;-87
2021/09/22 11:35:18;;;;;;;;;9.50;7.00;;;;;17.80;53.64;102624.91;4886494;29;45345;-87
2021/09/22 11:37:49;;;;;;;;;7.75;7.00;;;;;17.83;52.75;102624.81;4869335;29;45986;-87
2021/09/22 11:40:17;;;;;;;;;9.25;9.25;;;;;17.97;53.46;102641.16;4884994;29;46118;-87
2021/09/22 11:43:29;;;;;;;;;9.25;8.00;;;;;17.92;53.05;102623.63;4885039;29;45936;-86
2021/09/22 11:46:02;;;;;;;;;7.00;7.00;;;;;17.99;53.21;102633.13;4894053;29;45518;-86
2021/09/22 11:48:31;;;;;;;;;8.25;7.75;;;;;18.02;53.24;102621.50;4877951;29;45277;-86
2021/09/22 11:50:58;;;;;;;;;7.25;7.00;;;;;18.15;53.58;102622.81;4885816;29;46319;-80
2021/09/22 11:53:39;;;;;;;;;11.50;8.50;;;;;18.17;53.79;102630.75;5113688;27;45659;-80
2021/09/22 11:56:05;;;;;;;;;10.25;8.00;;;;;18.21;52.83;102611.13;5096751;27;45565;-80
2021/09/22 11:58:34;;;;;;;;;10.00;7.50;;;;;18.25;52.32;102611.88;5096770;27;45489;-83
2021/09/22 12:01:04;;;;;;;;;9.50;9.50;;;;;18.29;52.80;102618.81;5095944;27;45285;-83
2021/09/22 12:03:33;;;;;;;;;9.25;8.50;;;;;18.31;52.56;102607.19;5090262;27;46516;-82
2021/09/22 12:06:03;;;;;;;;;9.75;8.25;;;;;18.30;52.44;102594.81;5096869;27;45611;-83
2021/09/22 12:08:33;;;;;;;;;11.50;8.25;;;;;18.36;52.36;102600.84;5098629;27;45244;-83
2021/09/22 12:10:59;;;;;;;;;8.00;8.00;;;;;18.41;52.17;102594.44;5096600;27;45475;-82
2021/09/22 12:13:25;;;;;;;;;10.25;9.25;;;;;18.41;52.01;102580.25;5096538;27;45511;-81
2021/09/22 12:15:57;;;;;;;;;7.75;7.00;;;;;18.48;51.97;102586.19;5103075;27;45444;-81
2021/09/22 12:18:23;;;;;;;;;9.00;8.00;;;;;18.50;51.75;102582.56;5096860;27;45444;-83
2021/09/22 12:20:49;;;;;;;;;7.75;7.75;;;;;18.52;51.56;102579.84;5095015;27;45554;-82
2021/09/22 12:23:27;;;;;;;;;11.75;9.75;;;;;18.52;52.33;102567.38;5096738;27;45443;-83
2021/09/22 12:26:06;;;;;;;;;8.50;8.50;;;;;18.58;52.64;102571.63;5095918;27;45455;-83
2021/09/22 12:28:31;;;;;;;;;8.00;8.00;;;;;18.58;52.31;102568.97;5084135;27;45520;-82
2021/09/22 12:30:57;;;;;;;;;7.50;7.25;;;;;18.59;52.44;102570.72;5096383;27;45425;-82
2021/09/22 12:33:22;;;;;;;;;8.00;8.00;;;;;18.60;52.44;102563.56;5095015;27;47178;-82
2021/09/22 12:35:49;;;;;;;;;10.25;8.25;;;;;18.59;52.10;102565.38;5086044;27;45510;-82